sensor_id;sensor_type;location;lat;lon;timestamp;P1;durP1;ratioP1;P2;durP2;ratioP2
16025;SDS011;8117;52.488;13.460;2023-08-17T00:01:14;3.53;;;0.95;;
16025;SDS011;8117;52.488;13.460;2023-08-17T00:03:45;1.00;;;1.00;;
16025;SDS011;8117;52.488;13.460;2023-08-17T00:06:12;3.67;;;1.10;;
16025;SDS011;8117;52.488;13.460;2023-08-17T00:08:39;1.95;;;1.00;;
16025;SDS011;8117;52.488;13.460;2023-08-17T00:11:08;2.33;;;1.20;;
16025;SDS011;8117;52.488;13.460;2023-08-17T00:13:38;1.70;;;1.10;;
16025;SDS011;8117;52.488;13.460;2023-08-17T00:16:07;2.47;;;0.80;;
16025;SDS011;8117;52.488;13.460;2023-08-17T00:18:39;0.93;;;0.77;;
16025;SDS011;8117;52.488;13.460;2023-08-17T00:21:09;0.82;;;0.75;;
16025;SDS011;8117;52.488;13.460;2023-08-17T00:23:36;0.90;;;0.90;;
16025;SDS011;8117;52.488;13.460;2023-08-17T00:26:14;1.17;;;0.90;;
16025;SDS011;8117;52.488;13.460;2023-08-17T00:28:46;1.10;;;1.00;;
16025;SDS011;8117;52.488;13.460;2023-08-17T00:31:13;1.80;;;1.08;;
16025;SDS011;8117;52.488;13.460;2023-08-17T00:33:43;1.85;;;1.27;;
16025;SDS011;8117;52.488;13.460;2023-08-17T00:36:10;1.35;;;1.02;;
16025;SDS011;8117;52.488;13.460;2023-08-17T00:38:36;0.93;;;0.93;;
16025;SDS011;8117;52.488;13.460;2023-08-17T00:41:05;3.40;;;0.93;;
16025;SDS011;8117;52.488;13.460;2023-08-17T00:43:35;1.13;;;1.00;;
16025;SDS011;8117;52.488;13.460;2023-08-17T00:46:05;2.65;;;1.17;;
16025;SDS011;8117;52.488;13.460;2023-08-17T00:48:33;1.33;;;1.05;;
16025;SDS011;8117;52.488;13.460;2023-08-17T00:51:05;0.75;;;0.75;;
16025;SDS011;8117;52.488;13.460;2023-08-17T00:53:32;1.58;;;0.80;;
16025;SDS011;8117;52.488;13.460;2023-08-17T00:56:02;1.45;;;0.98;;
16025;SDS011;8117;52.488;13.460;2023-08-17T00:58:29;1.20;;;1.10;;
16025;SDS011;8117;52.488;13.460;2023-08-17T01:00:57;1.10;;;1.10;;
16025;SDS011;8117;52.488;13.460;2023-08-17T01:03:27;1.40;;;1.30;;
16025;SDS011;8117;52.488;13.460;2023-08-17T01:05:57;1.27;;;0.90;;
16025;SDS011;8117;52.488;13.460;2023-08-17T01:08:27;1.33;;;1.23;;
16025;SDS011;8117;52.488;13.460;2023-08-17T01:10:57;1.58;;;1.42;;
16025;SDS011;8117;52.488;13.460;2023-08-17T01:13:31;1.67;;;1.33;;
16025;SDS011;8117;52.488;13.460;2023-08-17T01:16:05;1.88;;;1.13;;
16025;SDS011;8117;52.488;13.460;2023-08-17T01:18:36;1.15;;;0.90;;
16025;SDS011;8117;52.488;13.460;2023-08-17T01:21:05;0.65;;;0.65;;
16025;SDS011;8117;52.488;13.460;2023-08-17T01:23:36;1.83;;;1.40;;
16025;SDS011;8117;52.488;13.460;2023-08-17T01:26:06;0.98;;;0.98;;
16025;SDS011;8117;52.488;13.460;2023-08-17T01:28:33;1.67;;;1.00;;
16025;SDS011;8117;52.488;13.460;2023-08-17T01:31:03;1.25;;;1.15;;
16025;SDS011;8117;52.488;13.460;2023-08-17T01:33:35;1.42;;;1.23;;
16025;SDS011;8117;52.488;13.460;2023-08-17T01:36:06;1.13;;;1.02;;
16025;SDS011;8117;52.488;13.460;2023-08-17T01:38:39;1.20;;;0.95;;
16025;SDS011;8117;52.488;13.460;2023-08-17T01:41:07;1.20;;;1.10;;
16025;SDS011;8117;52.488;13.460;2023-08-17T01:43:38;1.30;;;1.08;;
16025;SDS011;8117;52.488;13.460;2023-08-17T01:46:05;1.30;;;1.20;;
16025;SDS011;8117;52.488;13.460;2023-08-17T01:48:33;1.20;;;1.08;;
16025;SDS011;8117;52.488;13.460;2023-08-17T01:51:00;1.65;;;1.20;;
16025;SDS011;8117;52.488;13.460;2023-08-17T01:53:27;1.25;;;1.00;;
16025;SDS011;8117;52.488;13.460;2023-08-17T01:55:55;1.10;;;1.00;;
16025;SDS011;8117;52.488;13.460;2023-08-17T01:58:24;1.48;;;1.20;;
16025;SDS011;8117;52.488;13.460;2023-08-17T02:00:53;1.75;;;1.60;;
16025;SDS011;8117;52.488;13.460;2023-08-17T02:03:20;1.23;;;1.00;;
16025;SDS011;8117;52.488;13.460;2023-08-17T02:05:47;2.90;;;1.25;;
16025;SDS011;8117;52.488;13.460;2023-08-17T02:08:15;1.23;;;1.00;;
16025;SDS011;8117;52.488;13.460;2023-08-17T02:10:42;1.05;;;0.85;;
16025;SDS011;8117;52.488;13.460;2023-08-17T02:13:10;1.77;;;1.20;;
16025;SDS011;8117;52.488;13.460;2023-08-17T02:15:38;1.48;;;1.13;;
16025;SDS011;8117;52.488;13.460;2023-08-17T02:18:08;1.02;;;0.90;;
16025;SDS011;8117;52.488;13.460;2023-08-17T02:20:34;1.40;;;0.90;;
16025;SDS011;8117;52.488;13.460;2023-08-17T02:23:01;1.20;;;1.10;;
16025;SDS011;8117;52.488;13.460;2023-08-17T02:25:28;1.13;;;1.05;;
16025;SDS011;8117;52.488;13.460;2023-08-17T02:28:00;0.70;;;0.70;;
16025;SDS011;8117;52.488;13.460;2023-08-17T02:30:33;4.63;;;1.88;;
16025;SDS011;8117;52.488;13.460;2023-08-17T02:33:06;1.13;;;1.00;;
16025;SDS011;8117;52.488;13.460;2023-08-17T02:35:36;1.83;;;1.17;;
16025;SDS011;8117;52.488;13.460;2023-08-17T02:38:08;1.23;;;1.05;;
16025;SDS011;8117;52.488;13.460;2023-08-17T02:40:35;1.33;;;1.13;;
16025;SDS011;8117;52.488;13.460;2023-08-17T02:43:02;1.30;;;1.20;;
16025;SDS011;8117;52.488;13.460;2023-08-17T02:45:35;1.05;;;0.95;;
16025;SDS011;8117;52.488;13.460;2023-08-17T02:48:05;0.90;;;0.85;;
16025;SDS011;8117;52.488;13.460;2023-08-17T02:50:35;1.65;;;1.30;;
16025;SDS011;8117;52.488;13.460;2023-08-17T02:53:02;0.95;;;0.93;;
16025;SDS011;8117;52.488;13.460;2023-08-17T02:55:29;1.45;;;1.30;;
16025;SDS011;8117;52.488;13.460;2023-08-17T02:57:56;1.42;;;1.10;;
16025;SDS011;8117;52.488;13.460;2023-08-17T03:00:23;1.33;;;0.95;;
16025;SDS011;8117;52.488;13.460;2023-08-17T03:02:51;1.85;;;1.00;;
16025;SDS011;8117;52.488;13.460;2023-08-17T03:05:19;3.03;;;1.20;;
16025;SDS011;8117;52.488;13.460;2023-08-17T03:07:47;1.13;;;0.90;;
16025;SDS011;8117;52.488;13.460;2023-08-17T03:10:17;1.23;;;1.13;;
16025;SDS011;8117;52.488;13.460;2023-08-17T03:12:44;1.45;;;0.98;;
16025;SDS011;8117;52.488;13.460;2023-08-17T03:15:14;1.27;;;1.02;;
16025;SDS011;8117;52.488;13.460;2023-08-17T03:17:41;0.73;;;0.73;;
16025;SDS011;8117;52.488;13.460;2023-08-17T03:20:15;0.90;;;0.90;;
16025;SDS011;8117;52.488;13.460;2023-08-17T03:22:47;0.90;;;0.90;;
16025;SDS011;8117;52.488;13.460;2023-08-17T03:25:23;1.48;;;1.00;;
16025;SDS011;8117;52.488;13.460;2023-08-17T03:27:50;2.65;;;0.98;;
16025;SDS011;8117;52.488;13.460;2023-08-17T03:30:17;3.15;;;1.20;;
16025;SDS011;8117;52.488;13.460;2023-08-17T03:32:47;5.28;;;1.00;;
16025;SDS011;8117;52.488;13.460;2023-08-17T03:35:17;1.55;;;1.20;;
16025;SDS011;8117;52.488;13.460;2023-08-17T03:37:44;6.22;;;0.95;;
16025;SDS011;8117;52.488;13.460;2023-08-17T03:40:11;1.45;;;1.20;;
16025;SDS011;8117;52.488;13.460;2023-08-17T03:42:39;1.23;;;1.05;;
16025;SDS011;8117;52.488;13.460;2023-08-17T03:45:06;1.17;;;1.08;;
16025;SDS011;8117;52.488;13.460;2023-08-17T03:47:34;2.03;;;1.10;;
16025;SDS011;8117;52.488;13.460;2023-08-17T03:50:04;1.63;;;1.10;;
16025;SDS011;8117;52.488;13.460;2023-08-17T03:52:41;2.15;;;1.05;;
16025;SDS011;8117;52.488;13.460;2023-08-17T03:55:08;1.15;;;1.10;;
16025;SDS011;8117;52.488;13.460;2023-08-17T03:57:35;2.28;;;1.00;;
16025;SDS011;8117;52.488;13.460;2023-08-17T04:00:03;0.93;;;0.70;;
16025;SDS011;8117;52.488;13.460;2023-08-17T04:02:31;3.40;;;0.90;;
16025;SDS011;8117;52.488;13.460;2023-08-17T04:05:01;1.55;;;1.23;;
16025;SDS011;8117;52.488;13.460;2023-08-17T04:07:29;1.90;;;1.08;;
16025;SDS011;8117;52.488;13.460;2023-08-17T04:09:57;1.00;;;0.90;;
16025;SDS011;8117;52.488;13.460;2023-08-17T04:12:23;1.20;;;0.95;;
16025;SDS011;8117;52.488;13.460;2023-08-17T04:14:50;1.00;;;0.90;;
16025;SDS011;8117;52.488;13.460;2023-08-17T04:17:17;2.15;;;0.98;;
16025;SDS011;8117;52.488;13.460;2023-08-17T04:19:45;0.70;;;0.70;;
16025;SDS011;8117;52.488;13.460;2023-08-17T04:22:14;1.42;;;1.20;;
16025;SDS011;8117;52.488;13.460;2023-08-17T04:24:41;2.05;;;1.02;;
16025;SDS011;8117;52.488;13.460;2023-08-17T04:27:09;2.20;;;0.90;;
16025;SDS011;8117;52.488;13.460;2023-08-17T04:29:37;2.78;;;1.00;;
16025;SDS011;8117;52.488;13.460;2023-08-17T04:32:04;1.00;;;0.90;;
16025;SDS011;8117;52.488;13.460;2023-08-17T04:34:31;0.70;;;0.70;;
16025;SDS011;8117;52.488;13.460;2023-08-17T04:37:00;0.77;;;0.77;;
16025;SDS011;8117;52.488;13.460;2023-08-17T04:39:27;1.00;;;0.80;;
16025;SDS011;8117;52.488;13.460;2023-08-17T04:41:54;0.90;;;0.70;;
16025;SDS011;8117;52.488;13.460;2023-08-17T04:44:22;0.98;;;0.70;;
16025;SDS011;8117;52.488;13.460;2023-08-17T04:46:49;1.77;;;0.93;;
16025;SDS011;8117;52.488;13.460;2023-08-17T04:49:16;1.70;;;0.73;;
16025;SDS011;8117;52.488;13.460;2023-08-17T04:51:45;1.15;;;0.95;;
16025;SDS011;8117;52.488;13.460;2023-08-17T04:54:14;0.90;;;0.68;;
16025;SDS011;8117;52.488;13.460;2023-08-17T04:56:40;0.98;;;0.93;;
16025;SDS011;8117;52.488;13.460;2023-08-17T04:59:08;2.35;;;0.90;;
16025;SDS011;8117;52.488;13.460;2023-08-17T05:01:36;0.77;;;0.77;;
16025;SDS011;8117;52.488;13.460;2023-08-17T05:04:03;2.38;;;1.30;;
16025;SDS011;8117;52.488;13.460;2023-08-17T05:06:31;1.95;;;1.08;;
16025;SDS011;8117;52.488;13.460;2023-08-17T05:09:05;1.17;;;0.70;;
16025;SDS011;8117;52.488;13.460;2023-08-17T05:11:35;0.75;;;0.60;;
16025;SDS011;8117;52.488;13.460;2023-08-17T05:14:06;2.17;;;1.27;;
16025;SDS011;8117;52.488;13.460;2023-08-17T05:16:34;1.17;;;1.08;;
16025;SDS011;8117;52.488;13.460;2023-08-17T05:19:18;1.00;;;0.80;;
16025;SDS011;8117;52.488;13.460;2023-08-17T05:21:50;0.70;;;0.70;;
16025;SDS011;8117;52.488;13.460;2023-08-17T05:24:20;1.67;;;1.23;;
16025;SDS011;8117;52.488;13.460;2023-08-17T05:26:50;1.23;;;0.80;;
16025;SDS011;8117;52.488;13.460;2023-08-17T05:29:16;0.80;;;0.80;;
16025;SDS011;8117;52.488;13.460;2023-08-17T05:31:43;1.00;;;0.90;;
16025;SDS011;8117;52.488;13.460;2023-08-17T05:34:14;1.23;;;1.13;;
16025;SDS011;8117;52.488;13.460;2023-08-17T05:36:45;0.82;;;0.80;;
16025;SDS011;8117;52.488;13.460;2023-08-17T05:39:15;0.93;;;0.90;;
16025;SDS011;8117;52.488;13.460;2023-08-17T05:41:42;1.70;;;0.85;;
16025;SDS011;8117;52.488;13.460;2023-08-17T05:44:10;1.23;;;0.95;;
16025;SDS011;8117;52.488;13.460;2023-08-17T05:46:39;1.30;;;1.00;;
16025;SDS011;8117;52.488;13.460;2023-08-17T05:49:07;0.80;;;0.80;;
16025;SDS011;8117;52.488;13.460;2023-08-17T05:51:38;2.22;;;0.95;;
16025;SDS011;8117;52.488;13.460;2023-08-17T05:54:09;2.90;;;1.40;;
16025;SDS011;8117;52.488;13.460;2023-08-17T05:56:39;4.47;;;1.15;;
16025;SDS011;8117;52.488;13.460;2023-08-17T05:59:14;1.23;;;1.13;;
16025;SDS011;8117;52.488;13.460;2023-08-17T06:01:42;1.35;;;1.10;;
16025;SDS011;8117;52.488;13.460;2023-08-17T06:04:13;1.45;;;1.35;;
16025;SDS011;8117;52.488;13.460;2023-08-17T06:06:49;2.35;;;1.10;;
16025;SDS011;8117;52.488;13.460;2023-08-17T06:09:19;0.75;;;0.75;;
16025;SDS011;8117;52.488;13.460;2023-08-17T06:11:50;1.00;;;0.90;;
16025;SDS011;8117;52.488;13.460;2023-08-17T06:14:25;1.52;;;1.08;;
16025;SDS011;8117;52.488;13.460;2023-08-17T06:16:54;0.98;;;0.90;;
16025;SDS011;8117;52.488;13.460;2023-08-17T06:19:24;2.22;;;1.08;;
16025;SDS011;8117;52.488;13.460;2023-08-17T06:21:52;1.10;;;1.00;;
16025;SDS011;8117;52.488;13.460;2023-08-17T06:24:19;1.05;;;0.95;;
16025;SDS011;8117;52.488;13.460;2023-08-17T06:26:46;2.35;;;0.75;;
16025;SDS011;8117;52.488;13.460;2023-08-17T06:29:13;1.05;;;0.80;;
16025;SDS011;8117;52.488;13.460;2023-08-17T06:31:43;2.67;;;1.02;;
16025;SDS011;8117;52.488;13.460;2023-08-17T06:34:10;2.60;;;1.20;;
16025;SDS011;8117;52.488;13.460;2023-08-17T06:36:43;0.80;;;0.80;;
16025;SDS011;8117;52.488;13.460;2023-08-17T06:39:31;0.73;;;0.63;;
16025;SDS011;8117;52.488;13.460;2023-08-17T06:42:29;0.80;;;0.80;;
16025;SDS011;8117;52.488;13.460;2023-08-17T06:44:56;1.10;;;1.00;;
16025;SDS011;8117;52.488;13.460;2023-08-17T06:47:29;1.65;;;0.95;;
16025;SDS011;8117;52.488;13.460;2023-08-17T06:49:58;1.30;;;0.90;;
16025;SDS011;8117;52.488;13.460;2023-08-17T06:55:20;1.25;;;0.90;;
16025;SDS011;8117;52.488;13.460;2023-08-17T06:57:50;0.80;;;0.80;;
16025;SDS011;8117;52.488;13.460;2023-08-17T07:00:43;1.25;;;1.15;;
16025;SDS011;8117;52.488;13.460;2023-08-17T07:03:15;1.13;;;0.90;;
16025;SDS011;8117;52.488;13.460;2023-08-17T07:08:55;2.63;;;0.88;;
16025;SDS011;8117;52.488;13.460;2023-08-17T07:11:31;0.80;;;0.80;;
16025;SDS011;8117;52.488;13.460;2023-08-17T07:14:16;1.48;;;0.80;;
16025;SDS011;8117;52.488;13.460;2023-08-17T07:16:50;1.10;;;0.82;;
16025;SDS011;8117;52.488;13.460;2023-08-17T07:19:21;1.05;;;0.80;;
16025;SDS011;8117;52.488;13.460;2023-08-17T07:22:08;0.80;;;0.77;;
16025;SDS011;8117;52.488;13.460;2023-08-17T07:24:47;1.02;;;0.93;;
16025;SDS011;8117;52.488;13.460;2023-08-17T07:27:14;0.77;;;0.77;;
16025;SDS011;8117;52.488;13.460;2023-08-17T07:29:53;0.73;;;0.73;;
16025;SDS011;8117;52.488;13.460;2023-08-17T07:32:20;1.10;;;1.00;;
16025;SDS011;8117;52.488;13.460;2023-08-17T07:34:53;1.35;;;0.90;;
16025;SDS011;8117;52.488;13.460;2023-08-17T07:37:38;0.73;;;0.73;;
16025;SDS011;8117;52.488;13.460;2023-08-17T07:43:02;0.88;;;0.82;;
16025;SDS011;8117;52.488;13.460;2023-08-17T07:45:31;1.02;;;0.93;;
16025;SDS011;8117;52.488;13.460;2023-08-17T07:48:09;1.17;;;1.02;;
16025;SDS011;8117;52.488;13.460;2023-08-17T07:50:41;1.10;;;1.00;;
16025;SDS011;8117;52.488;13.460;2023-08-17T07:53:08;1.27;;;1.17;;
16025;SDS011;8117;52.488;13.460;2023-08-17T07:55:45;1.50;;;0.80;;
16025;SDS011;8117;52.488;13.460;2023-08-17T07:58:12;1.20;;;1.10;;
16025;SDS011;8117;52.488;13.460;2023-08-17T08:00:38;0.95;;;0.95;;
16025;SDS011;8117;52.488;13.460;2023-08-17T08:03:08;1.23;;;0.90;;
16025;SDS011;8117;52.488;13.460;2023-08-17T08:05:37;1.05;;;1.00;;
16025;SDS011;8117;52.488;13.460;2023-08-17T08:08:06;1.70;;;1.20;;
16025;SDS011;8117;52.488;13.460;2023-08-17T08:10:33;1.00;;;0.93;;
16025;SDS011;8117;52.488;13.460;2023-08-17T08:13:06;2.15;;;1.40;;
16025;SDS011;8117;52.488;13.460;2023-08-17T08:15:35;1.95;;;1.02;;
16025;SDS011;8117;52.488;13.460;2023-08-17T08:18:07;1.45;;;1.17;;
16025;SDS011;8117;52.488;13.460;2023-08-17T08:20:39;1.30;;;1.20;;
16025;SDS011;8117;52.488;13.460;2023-08-17T08:23:09;1.42;;;1.33;;
16025;SDS011;8117;52.488;13.460;2023-08-17T08:25:36;2.72;;;1.10;;
16025;SDS011;8117;52.488;13.460;2023-08-17T08:28:05;1.63;;;1.20;;
16025;SDS011;8117;52.488;13.460;2023-08-17T08:30:32;1.30;;;1.20;;
16025;SDS011;8117;52.488;13.460;2023-08-17T08:32:59;1.23;;;0.95;;
16025;SDS011;8117;52.488;13.460;2023-08-17T08:35:39;2.63;;;1.52;;
16025;SDS011;8117;52.488;13.460;2023-08-17T08:38:19;1.20;;;1.10;;
16025;SDS011;8117;52.488;13.460;2023-08-17T08:41:22;1.67;;;1.00;;
16025;SDS011;8117;52.488;13.460;2023-08-17T08:44:07;1.50;;;1.40;;
16025;SDS011;8117;52.488;13.460;2023-08-17T08:46:58;1.55;;;1.20;;
16025;SDS011;8117;52.488;13.460;2023-08-17T08:49:45;1.17;;;1.08;;
16025;SDS011;8117;52.488;13.460;2023-08-17T08:52:35;1.38;;;1.10;;
16025;SDS011;8117;52.488;13.460;2023-08-17T08:55:37;1.10;;;1.00;;
16025;SDS011;8117;52.488;13.460;2023-08-17T08:58:04;5.88;;;1.45;;
16025;SDS011;8117;52.488;13.460;2023-08-17T09:00:41;1.50;;;1.40;;
16025;SDS011;8117;52.488;13.460;2023-08-17T09:03:26;1.15;;;1.08;;
16025;SDS011;8117;52.488;13.460;2023-08-17T09:05:59;3.28;;;1.52;;
16025;SDS011;8117;52.488;13.460;2023-08-17T09:09:19;1.35;;;1.25;;
16025;SDS011;8117;52.488;13.460;2023-08-17T09:12:07;2.50;;;1.45;;
16025;SDS011;8117;52.488;13.460;2023-08-17T09:17:04;1.88;;;1.25;;
16025;SDS011;8117;52.488;13.460;2023-08-17T09:18:00;1.92;;;1.60;;
16025;SDS011;8117;52.488;13.460;2023-08-17T09:20:44;1.40;;;1.30;;
16025;SDS011;8117;52.488;13.460;2023-08-17T09:24:19;2.47;;;1.48;;
16025;SDS011;8117;52.488;13.460;2023-08-17T09:26:49;1.45;;;1.10;;
16025;SDS011;8117;52.488;13.460;2023-08-17T09:29:32;4.68;;;1.13;;
16025;SDS011;8117;52.488;13.460;2023-08-17T09:32:39;1.45;;;1.10;;
16025;SDS011;8117;52.488;13.460;2023-08-17T09:38:23;2.38;;;1.45;;
16025;SDS011;8117;52.488;13.460;2023-08-17T09:41:18;1.40;;;1.30;;
16025;SDS011;8117;52.488;13.460;2023-08-17T09:43:45;1.30;;;1.20;;
16025;SDS011;8117;52.488;13.460;2023-08-17T09:48:01;1.60;;;1.25;;
16025;SDS011;8117;52.488;13.460;2023-08-17T09:49:25;1.38;;;1.10;;
16025;SDS011;8117;52.488;13.460;2023-08-17T09:52:17;1.40;;;1.30;;
16025;SDS011;8117;52.488;13.460;2023-08-17T09:54:50;1.52;;;1.27;;
16025;SDS011;8117;52.488;13.460;2023-08-17T09:57:30;2.05;;;1.42;;
16025;SDS011;8117;52.488;13.460;2023-08-17T10:00:22;3.40;;;1.48;;
16025;SDS011;8117;52.488;13.460;2023-08-17T10:02:53;1.20;;;1.10;;
16025;SDS011;8117;52.488;13.460;2023-08-17T10:08:51;1.30;;;1.15;;
16025;SDS011;8117;52.488;13.460;2023-08-17T10:11:26;1.52;;;1.13;;
16025;SDS011;8117;52.488;13.460;2023-08-17T10:14:13;1.70;;;1.40;;
16025;SDS011;8117;52.488;13.460;2023-08-17T10:17:13;1.50;;;1.40;;
16025;SDS011;8117;52.488;13.460;2023-08-17T10:19:46;1.95;;;1.42;;
16025;SDS011;8117;52.488;13.460;2023-08-17T10:22:29;1.50;;;1.40;;
16025;SDS011;8117;52.488;13.460;2023-08-17T10:25:21;1.10;;;1.00;;
16025;SDS011;8117;52.488;13.460;2023-08-17T10:27:52;3.47;;;1.85;;
16025;SDS011;8117;52.488;13.460;2023-08-17T10:30:30;2.90;;;1.80;;
16025;SDS011;8117;52.488;13.460;2023-08-17T10:33:03;1.58;;;1.48;;
16025;SDS011;8117;52.488;13.460;2023-08-17T10:35:41;4.55;;;1.55;;
16025;SDS011;8117;52.488;13.460;2023-08-17T10:38:27;2.00;;;1.42;;
16025;SDS011;8117;52.488;13.460;2023-08-17T10:41:12;2.25;;;1.35;;
16025;SDS011;8117;52.488;13.460;2023-08-17T10:43:54;1.50;;;1.40;;
16025;SDS011;8117;52.488;13.460;2023-08-17T10:46:27;1.90;;;1.45;;
16025;SDS011;8117;52.488;13.460;2023-08-17T10:49:00;3.08;;;1.63;;
16025;SDS011;8117;52.488;13.460;2023-08-17T10:51:36;1.52;;;1.40;;
16025;SDS011;8117;52.488;13.460;2023-08-17T10:54:16;2.00;;;1.80;;
16025;SDS011;8117;52.488;13.460;2023-08-17T10:56:47;2.25;;;1.77;;
16025;SDS011;8117;52.488;13.460;2023-08-17T10:59:33;2.22;;;1.70;;
16025;SDS011;8117;52.488;13.460;2023-08-17T11:02:03;2.80;;;1.83;;
16025;SDS011;8117;52.488;13.460;2023-08-17T11:04:35;1.60;;;1.50;;
16025;SDS011;8117;52.488;13.460;2023-08-17T11:07:02;1.65;;;1.25;;
16025;SDS011;8117;52.488;13.460;2023-08-17T11:09:29;1.38;;;1.25;;
16025;SDS011;8117;52.488;13.460;2023-08-17T11:12:42;2.03;;;1.67;;
16025;SDS011;8117;52.488;13.460;2023-08-17T11:15:24;1.90;;;1.70;;
16025;SDS011;8117;52.488;13.460;2023-08-17T11:17:58;1.92;;;1.40;;
16025;SDS011;8117;52.488;13.460;2023-08-17T11:20:30;1.50;;;1.40;;
16025;SDS011;8117;52.488;13.460;2023-08-17T11:23:51;7.85;;;1.98;;
16025;SDS011;8117;52.488;13.460;2023-08-17T11:26:25;2.03;;;1.90;;
16025;SDS011;8117;52.488;13.460;2023-08-17T11:29:12;2.25;;;1.65;;
16025;SDS011;8117;52.488;13.460;2023-08-17T11:31:53;1.67;;;1.38;;
16025;SDS011;8117;52.488;13.460;2023-08-17T11:37:32;2.42;;;1.77;;
16025;SDS011;8117;52.488;13.460;2023-08-17T11:40:11;1.90;;;1.67;;
16025;SDS011;8117;52.488;13.460;2023-08-17T11:43:05;4.70;;;1.88;;
16025;SDS011;8117;52.488;13.460;2023-08-17T11:45:54;3.13;;;1.83;;
16025;SDS011;8117;52.488;13.460;2023-08-17T11:48:43;2.65;;;2.00;;
16025;SDS011;8117;52.488;13.460;2023-08-17T11:51:22;2.30;;;2.10;;
16025;SDS011;8117;52.488;13.460;2023-08-17T11:54:28;2.47;;;1.80;;
16025;SDS011;8117;52.488;13.460;2023-08-17T11:56:57;1.88;;;1.77;;
16025;SDS011;8117;52.488;13.460;2023-08-17T11:59:32;2.35;;;2.00;;
16025;SDS011;8117;52.488;13.460;2023-08-17T12:05:34;1.85;;;1.63;;
16025;SDS011;8117;52.488;13.460;2023-08-17T12:12:07;2.15;;;1.70;;
16025;SDS011;8117;52.488;13.460;2023-08-17T12:18:06;2.80;;;2.15;;
16025;SDS011;8117;52.488;13.460;2023-08-17T12:23:58;2.47;;;1.85;;
16025;SDS011;8117;52.488;13.460;2023-08-17T12:26:58;3.35;;;2.42;;
16025;SDS011;8117;52.488;13.460;2023-08-17T12:29:48;1.90;;;1.80;;
16025;SDS011;8117;52.488;13.460;2023-08-17T12:32:25;2.42;;;1.88;;
16025;SDS011;8117;52.488;13.460;2023-08-17T12:35:02;2.33;;;1.77;;
16025;SDS011;8117;52.488;13.460;2023-08-17T12:37:52;2.40;;;1.90;;
16025;SDS011;8117;52.488;13.460;2023-08-17T12:40:43;3.28;;;1.85;;
16025;SDS011;8117;52.488;13.460;2023-08-17T12:43:23;1.88;;;1.50;;
16025;SDS011;8117;52.488;13.460;2023-08-17T12:47:10;2.45;;;1.85;;
16025;SDS011;8117;52.488;13.460;2023-08-17T12:49:31;1.90;;;1.70;;
16025;SDS011;8117;52.488;13.460;2023-08-17T12:52:17;2.40;;;2.10;;
16025;SDS011;8117;52.488;13.460;2023-08-17T12:54:57;1.85;;;1.73;;
16025;SDS011;8117;52.488;13.460;2023-08-17T12:57:54;3.28;;;2.30;;
16025;SDS011;8117;52.488;13.460;2023-08-17T13:00:26;3.63;;;1.95;;
16025;SDS011;8117;52.488;13.460;2023-08-17T13:03:07;2.33;;;1.85;;
16025;SDS011;8117;52.488;13.460;2023-08-17T13:05:44;2.45;;;1.98;;
16025;SDS011;8117;52.488;13.460;2023-08-17T13:08:22;2.75;;;1.83;;
16025;SDS011;8117;52.488;13.460;2023-08-17T13:17:35;2.40;;;2.20;;
16025;SDS011;8117;52.488;13.460;2023-08-17T13:20:26;2.38;;;2.15;;
16025;SDS011;8117;52.488;13.460;2023-08-17T13:23:31;2.80;;;2.42;;
16025;SDS011;8117;52.488;13.460;2023-08-17T13:27:04;1.55;;;1.45;;
16025;SDS011;8117;52.488;13.460;2023-08-17T13:42:34;2.63;;;2.00;;
16025;SDS011;8117;52.488;13.460;2023-08-17T13:45:40;2.03;;;1.80;;
16025;SDS011;8117;52.488;13.460;2023-08-17T14:04:49;3.03;;;1.98;;
16025;SDS011;8117;52.488;13.460;2023-08-17T14:07:55;1.55;;;1.45;;
16025;SDS011;8117;52.488;13.460;2023-08-17T14:10:39;2.05;;;1.52;;
16025;SDS011;8117;52.488;13.460;2023-08-17T14:14:32;3.33;;;2.10;;
16025;SDS011;8117;52.488;13.460;2023-08-17T14:18:16;2.10;;;1.73;;
16025;SDS011;8117;52.488;13.460;2023-08-17T14:19:33;1.83;;;1.65;;
16025;SDS011;8117;52.488;13.460;2023-08-17T14:22:12;2.13;;;1.92;;
16025;SDS011;8117;52.488;13.460;2023-08-17T14:24:50;1.85;;;1.70;;
16025;SDS011;8117;52.488;13.460;2023-08-17T14:27:31;3.30;;;2.17;;
16025;SDS011;8117;52.488;13.460;2023-08-17T14:30:17;3.42;;;1.75;;
16025;SDS011;8117;52.488;13.460;2023-08-17T14:32:59;1.65;;;1.55;;
16025;SDS011;8117;52.488;13.460;2023-08-17T14:35:41;2.95;;;1.90;;
16025;SDS011;8117;52.488;13.460;2023-08-17T14:38:20;1.75;;;1.48;;
16025;SDS011;8117;52.488;13.460;2023-08-17T14:41:02;1.60;;;1.50;;
16025;SDS011;8117;52.488;13.460;2023-08-17T14:44:05;2.67;;;1.58;;
16025;SDS011;8117;52.488;13.460;2023-08-17T14:46:59;1.83;;;1.60;;
16025;SDS011;8117;52.488;13.460;2023-08-17T14:49:31;1.67;;;1.58;;
16025;SDS011;8117;52.488;13.460;2023-08-17T14:52:27;1.83;;;1.50;;
16025;SDS011;8117;52.488;13.460;2023-08-17T14:55:30;4.60;;;2.30;;
16025;SDS011;8117;52.488;13.460;2023-08-17T14:58:24;1.60;;;1.50;;
16025;SDS011;8117;52.488;13.460;2023-08-17T15:03:59;1.40;;;1.30;;
16025;SDS011;8117;52.488;13.460;2023-08-17T15:06:33;3.30;;;1.90;;
16025;SDS011;8117;52.488;13.460;2023-08-17T15:09:52;3.40;;;1.77;;
16025;SDS011;8117;52.488;13.460;2023-08-17T15:15:13;1.83;;;1.73;;
16025;SDS011;8117;52.488;13.460;2023-08-17T15:17:52;2.58;;;1.65;;
16025;SDS011;8117;52.488;13.460;2023-08-17T15:21:26;2.15;;;1.95;;
16025;SDS011;8117;52.488;13.460;2023-08-17T15:24:27;1.95;;;1.38;;
16025;SDS011;8117;52.488;13.460;2023-08-17T15:27:30;1.90;;;1.80;;
16025;SDS011;8117;52.488;13.460;2023-08-17T15:30:29;1.73;;;1.63;;
16025;SDS011;8117;52.488;13.460;2023-08-17T15:33:15;2.13;;;1.92;;
16025;SDS011;8117;52.488;13.460;2023-08-17T15:36:25;2.13;;;1.50;;
16025;SDS011;8117;52.488;13.460;2023-08-17T15:39:19;2.60;;;2.20;;
16025;SDS011;8117;52.488;13.460;2023-08-17T15:42:17;2.05;;;1.85;;
16025;SDS011;8117;52.488;13.460;2023-08-17T15:44:47;2.33;;;1.75;;
16025;SDS011;8117;52.488;13.460;2023-08-17T15:47:20;1.92;;;1.77;;
16025;SDS011;8117;52.488;13.460;2023-08-17T15:50:02;1.73;;;1.63;;
16025;SDS011;8117;52.488;13.460;2023-08-17T15:52:36;1.85;;;1.73;;
16025;SDS011;8117;52.488;13.460;2023-08-17T15:55:54;2.13;;;1.92;;
16025;SDS011;8117;52.488;13.460;2023-08-17T15:58:42;2.80;;;1.50;;
16025;SDS011;8117;52.488;13.460;2023-08-17T16:01:26;1.50;;;1.40;;
16025;SDS011;8117;52.488;13.460;2023-08-17T16:07:09;1.63;;;1.52;;
16025;SDS011;8117;52.488;13.460;2023-08-17T16:10:13;1.50;;;1.40;;
16025;SDS011;8117;52.488;13.460;2023-08-17T16:13:25;2.03;;;1.83;;
16025;SDS011;8117;52.488;13.460;2023-08-17T16:16:44;2.03;;;1.80;;
16025;SDS011;8117;52.488;13.460;2023-08-17T16:19:41;1.52;;;1.42;;
16025;SDS011;8117;52.488;13.460;2023-08-17T16:22:19;2.10;;;1.90;;
16025;SDS011;8117;52.488;13.460;2023-08-17T16:25:27;2.33;;;1.95;;
16025;SDS011;8117;52.488;13.460;2023-08-17T16:28:20;2.10;;;1.90;;
16025;SDS011;8117;52.488;13.460;2023-08-17T16:31:01;2.53;;;1.80;;
16025;SDS011;8117;52.488;13.460;2023-08-17T16:34:10;1.77;;;1.52;;
16025;SDS011;8117;52.488;13.460;2023-08-17T16:36:41;2.17;;;1.45;;
16025;SDS011;8117;52.488;13.460;2023-08-17T16:39:29;3.40;;;2.13;;
16025;SDS011;8117;52.488;13.460;2023-08-17T16:41:59;1.88;;;1.77;;
16025;SDS011;8117;52.488;13.460;2023-08-17T16:44:31;2.15;;;1.63;;
16025;SDS011;8117;52.488;13.460;2023-08-17T16:47:03;2.17;;;1.63;;
16025;SDS011;8117;52.488;13.460;2023-08-17T16:50:12;2.22;;;1.67;;
16025;SDS011;8117;52.488;13.460;2023-08-17T16:53:00;1.80;;;1.70;;
16025;SDS011;8117;52.488;13.460;2023-08-17T16:58:36;1.60;;;1.50;;
16025;SDS011;8117;52.488;13.460;2023-08-17T17:01:09;1.95;;;1.75;;
16025;SDS011;8117;52.488;13.460;2023-08-17T17:04:10;3.65;;;1.85;;
16025;SDS011;8117;52.488;13.460;2023-08-17T17:06:46;1.92;;;1.70;;
16025;SDS011;8117;52.488;13.460;2023-08-17T17:09:36;2.25;;;2.00;;